Time;durP1;ratioP1;P1;durP2;ratioP2;P2;SDS_P1;SDS_P2;PMS_P1;PMS_P2;Temp;Humidity;BMP_temperature;BMP_pressure;BME280_temperature;BME280_humidity;BME280_pressure;Samples;Min_cycle;Max_cycle;Signal;HPM_P1;HPM_P2
2023/07/13 00:02:21;;;;;;;40.15;19.00;;;;;;;-143.21;59.79;71380.19;5113539;28;20196;-82
2023/07/13 00:04:47;;;;;;;37.03;18.52;;;;;;;-143.21;58.89;71378.19;5113702;28;20212;-83
2023/07/13 00:07:14;;;;;;;29.23;17.73;;;;;;;-143.21;58.89;71376.22;5113662;28;20264;-83
2023/07/13 00:09:41;;;;;;;40.13;20.17;;;;;;;-143.21;59.44;71372.25;5113597;28;20239;-83
2023/07/13 00:12:24;;;;;;;39.15;21.48;;;;;;;-143.21;59.42;71368.28;5113513;28;20196;-84
2023/07/13 00:14:51;;;;;;;41.25;21.10;;;;;;;-143.21;59.96;71376.22;5112638;28;20196;-84
2023/07/13 00:17:18;;;;;;;31.77;16.55;;;;;;;-143.21;60.18;71374.22;5113272;28;20675;-84
2023/07/13 00:19:46;;;;;;;26.92;15.00;;;;;;;-143.21;60.50;71376.22;5112579;28;20203;-84
2023/07/13 00:22:13;;;;;;;30.25;15.65;;;;;;;-143.21;60.72;71372.25;5112256;28;20231;-84
2023/07/13 00:24:41;;;;;;;28.65;14.82;;;;;;;-143.21;60.68;71374.22;5113005;28;20195;-84
2023/07/13 00:27:09;;;;;;;25.92;13.32;;;;;;;-143.21;60.70;71366.31;5126234;27;20681;-84
2023/07/13 00:29:36;;;;;;;25.65;12.43;;;;;;;-143.21;60.82;71368.28;5133550;27;20195;-84
2023/07/13 00:32:03;;;;;;;20.90;10.85;;;;;;;-143.21;60.82;71366.31;5115610;27;20198;-83
2023/07/13 00:34:30;;;;;;;18.45;9.57;;;;;;;-143.21;59.83;71366.31;5113301;28;20559;-84
2023/07/13 00:36:58;;;;;;;18.33;8.60;;;;;;;-143.21;59.94;71368.28;5112874;28;20219;-83
2023/07/13 00:39:25;;;;;;;14.65;8.05;;;;;;;-143.21;60.03;71374.22;5113305;28;20188;-83
2023/07/13 00:41:52;;;;;;;15.15;8.23;;;;;;;-143.21;60.37;71386.13;5113446;28;20203;-83
2023/07/13 00:44:20;;;;;;;11.63;7.45;;;;;;;-143.21;60.85;71390.09;5112867;28;20619;-84
2023/07/13 00:46:47;;;;;;;11.77;7.05;;;;;;;-143.21;61.15;71392.06;5113376;28;20196;-84
2023/07/13 00:49:17;;;;;;;11.45;7.07;;;;;;;-143.21;60.78;71390.09;5112843;28;20232;-83
2023/07/13 00:51:49;;;;;;;14.30;8.45;;;;;;;-143.21;61.34;71390.09;5112342;28;20196;-78
2023/07/13 00:54:35;;;;;;;12.65;7.50;;;;;;;-143.21;61.12;71388.09;5112257;28;20196;-78
2023/07/13 00:57:05;;;;;;;16.08;7.78;;;;;;;-143.21;61.49;71388.09;5112235;28;20219;-77
2023/07/13 00:59:33;;;;;;;12.57;7.85;;;;;;;-143.21;61.11;71390.09;5112741;28;20192;-77
2023/07/13 01:02:00;;;;;;;16.25;9.00;;;;;;;-143.21;60.52;71388.09;5112261;28;20206;-78
2023/07/13 01:04:27;;;;;;;16.73;8.32;;;;;;;-143.21;60.26;71392.06;5112474;28;20211;-78
2023/07/13 01:06:54;;;;;;;14.48;8.00;;;;;;;-143.21;60.73;71398.03;5112264;28;20196;-77
2023/07/13 01:09:23;;;;;;;12.88;8.23;;;;;;;-143.21;61.49;71409.91;5112587;28;20196;-78
2023/07/13 01:11:50;;;;;;;14.20;8.85;;;;;;;-143.21;62.15;71417.84;5112487;28;20196;-77
2023/07/13 01:14:17;;;;;;;18.13;8.35;;;;;;;-143.21;62.42;71421.81;5112432;28;20192;-77
2023/07/13 01:16:47;;;;;;;12.95;8.25;;;;;;;-143.21;62.30;71421.81;5112186;28;20690;-77
2023/07/13 01:19:35;;;;;;;16.15;8.68;;;;;;;-143.21;62.09;71413.88;5111881;28;20200;-77
2023/07/13 01:22:08;;;;;;;14.05;8.65;;;;;;;-143.21;62.24;71419.84;5111925;28;20185;-77
2023/07/13 01:24:35;;;;;;;14.05;8.85;;;;;;;-143.21;61.99;71403.97;5112354;28;20590;-77
2023/07/13 01:27:03;;;;;;;13.38;9.00;;;;;;;-143.21;61.55;71405.94;5111147;28;20200;-77
2023/07/13 01:29:30;;;;;;;16.73;9.43;;;;;;;-143.21;61.96;71409.91;5111713;28;20704;-77
2023/07/13 01:31:58;;;;;;;23.77;10.63;;;;;;;-143.21;62.17;71421.81;5111814;28;20275;-77
2023/07/13 01:34:24;;;;;;;17.33;9.50;;;;;;;-143.21;62.89;71429.75;5111571;28;20192;-77
2023/07/13 01:36:53;;;;;;;14.50;10.35;;;;;;;-143.21;62.88;71429.75;5111220;28;20220;-78
2023/07/13 01:39:22;;;;;;;26.00;9.68;;;;;;;-143.21;63.20;71429.75;5111439;28;20200;-78
2023/07/13 01:41:49;;;;;;;18.40;9.60;;;;;;;-143.21;63.01;71421.81;5111864;28;20203;-78
2023/07/13 01:44:16;;;;;;;18.02;9.90;;;;;;;-143.21;63.03;71423.78;5111397;28;20200;-79
2023/07/13 01:46:43;;;;;;;16.48;9.63;;;;;;;-143.21;63.11;71423.78;5111981;28;20203;-79
2023/07/13 01:49:09;;;;;;;15.65;9.40;;;;;;;-143.21;63.59;71419.84;5111574;28;20235;-78
2023/07/13 01:51:36;;;;;;;15.13;10.15;;;;;;;-143.21;63.62;71439.66;5111741;28;20750;-79
2023/07/13 01:54:03;;;;;;;18.25;9.23;;;;;;;-143.21;63.21;71437.69;5111570;28;20226;-79
2023/07/13 01:56:31;;;;;;;20.67;8.93;;;;;;;-143.21;63.15;71435.69;5119433;27;20227;-78
2023/07/13 01:58:58;;;;;;;20.50;8.73;;;;;;;-143.21;63.65;71437.69;5115799;27;20203;-79
2023/07/13 02:01:25;;;;;;;17.17;8.80;;;;;;;-143.21;63.76;71439.66;5111962;28;20199;-80
2023/07/13 02:03:52;;;;;;;17.08;8.60;;;;;;;-143.21;63.96;71445.59;5111351;28;20207;-79
2023/07/13 02:06:19;;;;;;;17.65;8.68;;;;;;;-143.21;64.00;71443.63;5101681;28;20192;-84
2023/07/13 02:08:45;;;;;;;13.30;8.02;;;;;;;-143.21;64.13;71445.59;5098244;28;20211;-83
2023/07/13 02:11:12;;;;;;;16.67;8.65;;;;;;;-143.21;64.25;71445.59;5112016;28;20208;-84
2023/07/13 02:13:41;;;;;;;13.13;8.98;;;;;;;-143.21;64.54;71445.59;5111722;28;20199;-84
2023/07/13 02:16:07;;;;;;;12.93;8.50;;;;;;;-143.21;64.25;71453.53;5111710;28;20216;-84
2023/07/13 02:18:34;;;;;;;11.68;8.95;;;;;;;-143.21;64.38;71455.53;5111498;28;20200;-84
2023/07/13 02:21:02;;;;;;;14.73;9.00;;;;;;;-143.21;64.86;71463.44;5112059;28;20570;-85
2023/07/13 02:23:29;;;;;;;15.52;9.45;;;;;;;-143.21;65.04;71473.38;5111157;28;20192;-84
2023/07/13 02:25:56;;;;;;;16.65;9.02;;;;;;;-143.21;64.54;71477.34;5108242;28;20212;-84
2023/07/13 02:28:23;;;;;;;18.73;9.65;;;;;;;-143.21;65.30;71487.25;5093555;28;20660;-84
2023/07/13 02:30:51;;;;;;;15.88;9.85;;;;;;;-143.21;65.68;71491.22;5111467;28;20670;-84
2023/07/13 02:33:18;;;;;;;17.42;9.40;;;;;;;-143.21;66.06;71487.25;5111686;28;20188;-84
2023/07/13 02:35:45;;;;;;;15.80;9.48;;;;;;;-143.21;66.27;71493.19;5111347;28;20283;-84
2023/07/13 02:38:12;;;;;;;16.20;9.27;;;;;;;-143.21;66.14;71483.28;5112652;28;20231;-84
2023/07/13 02:40:39;;;;;;;19.35;10.68;;;;;;;-143.21;66.33;71489.22;5115984;28;20196;-84
2023/07/13 02:43:06;;;;;;;14.07;9.13;;;;;;;-143.21;66.30;71493.19;5115479;28;20204;-85
2023/07/13 02:45:32;;;;;;;15.55;9.30;;;;;;;-143.21;66.14;71491.22;5115500;28;20215;-84
2023/07/13 02:48:01;;;;;;;18.98;9.55;;;;;;;-143.21;66.50;71499.13;5114948;28;20226;-84
2023/07/13 02:50:27;;;;;;;13.63;8.98;;;;;;;-143.21;66.72;71507.06;5114969;28;20196;-82
2023/07/13 02:52:54;;;;;;;16.08;8.90;;;;;;;-143.21;65.98;71505.09;5114336;28;20208;-83
2023/07/13 02:55:21;;;;;;;13.52;8.38;;;;;;;-143.21;66.17;71513.03;5114852;28;20208;-85
2023/07/13 02:57:48;;;;;;;15.75;9.15;;;;;;;-143.21;66.48;71518.97;5134056;27;20219;-85
2023/07/13 03:00:16;;;;;;;20.85;9.02;;;;;;;-143.21;66.69;71526.91;5135833;27;20191;-85
2023/07/13 03:02:43;;;;;;;14.55;8.80;;;;;;;-143.21;66.98;71522.94;5129116;27;20208;-85
2023/07/13 03:05:12;;;;;;;11.90;8.60;;;;;;;-143.21;67.14;71534.81;5115069;28;20270;-85
2023/07/13 03:07:39;;;;;;;13.55;9.02;;;;;;;-143.21;66.96;71524.91;5115362;28;20612;-86
2023/07/13 03:10:07;;;;;;;18.30;8.82;;;;;;;-143.21;67.41;71534.81;5114858;28;20572;-85
2023/07/13 03:12:34;;;;;;;17.73;9.60;;;;;;;-143.21;67.93;71542.75;5114922;28;20685;-85
2023/07/13 03:15:01;;;;;;;15.80;10.75;;;;;;;-143.21;67.63;71536.81;5115192;28;20208;-85
2023/07/13 03:17:27;;;;;;;16.55;10.55;;;;;;;-143.21;67.59;71538.78;5114628;28;20211;-85
2023/07/13 03:19:54;;;;;;;22.30;10.75;;;;;;;-143.21;67.71;71534.81;5114280;28;20204;-85
2023/07/13 03:22:22;;;;;;;15.55;9.50;;;;;;;-143.21;67.88;71536.81;5114063;28;20211;-84
2023/07/13 03:24:49;;;;;;;18.70;10.20;;;;;;;-143.21;68.21;71540.78;5114069;28;20199;-85
2023/07/13 03:27:18;;;;;;;18.95;10.18;;;;;;;-143.21;68.58;71540.78;5099774;28;20208;-86
2023/07/13 03:29:45;;;;;;;15.82;10.60;;;;;;;-143.21;68.38;71536.81;5094503;28;20193;-84
2023/07/13 03:32:12;;;;;;;19.17;9.88;;;;;;;-143.21;68.61;71548.72;5094175;28;20201;-84
2023/07/13 03:34:39;;;;;;;18.73;10.02;;;;;;;-143.21;68.69;71546.72;5108188;28;20207;-84
2023/07/13 03:37:06;;;;;;;20.30;10.43;;;;;;;-143.21;69.02;71548.72;5095411;28;20239;-84
2023/07/13 03:39:34;;;;;;;29.10;10.30;;;;;;;-143.21;69.10;71542.75;5114110;28;20196;-84
2023/07/13 03:42:01;;;;;;;30.60;10.75;;;;;;;-143.21;69.22;71544.75;5114092;28;20203;-84
2023/07/13 03:44:28;;;;;;;22.90;10.10;;;;;;;-143.21;69.08;71536.81;5114654;28;20286;-84
2023/07/13 03:46:55;;;;;;;21.42;10.38;;;;;;;-143.21;69.05;71542.75;5114570;28;20245;-84
2023/07/13 03:49:22;;;;;;;18.55;11.13;;;;;;;-143.21;68.95;71538.78;5113465;28;20228;-82
2023/07/13 03:51:49;;;;;;;23.70;10.68;;;;;;;-143.21;68.79;71534.81;5113805;28;20202;-82
2023/07/13 03:54:15;;;;;;;20.65;11.07;;;;;;;-143.21;68.76;71530.88;5113920;28;20188;-83
2023/07/13 03:56:44;;;;;;;20.70;11.02;;;;;;;-143.21;68.74;71532.84;5113873;28;20314;-83
2023/07/13 03:59:10;;;;;;;17.70;10.60;;;;;;;-143.21;68.25;71518.97;5114113;28;20207;-83
2023/07/13 04:01:37;;;;;;;18.35;10.27;;;;;;;-143.21;68.34;71515.00;5114014;28;20192;-83
2023/07/13 04:04:04;;;;;;;22.92;11.75;;;;;;;-143.21;68.31;71513.03;5113726;28;20621;-82
2023/07/13 04:06:32;;;;;;;23.73;11.98;;;;;;;-143.21;68.40;71507.06;5113556;28;20626;-83
2023/07/13 04:09:01;;;;;;;18.70;11.02;;;;;;;-143.21;68.51;71507.06;5113384;28;20188;-83
2023/07/13 04:11:31;;;;;;;28.98;11.93;;;;;;;-143.21;68.76;71503.09;5113457;28;20204;-83
2023/07/13 04:13:59;;;;;;;19.48;11.05;;;;;;;-143.21;68.97;71497.16;5113419;28;20296;-83
2023/07/13 04:16:26;;;;;;;21.02;11.27;;;;;;;-143.21;68.82;71499.13;5113492;28;20694;-84
2023/07/13 04:18:58;;;;;;;16.73;11.20;;;;;;;-143.21;68.60;71505.09;5113788;28;20207;-84
2023/07/13 04:21:25;;;;;;;17.27;11.82;;;;;;;-143.21;68.60;71503.09;5113602;28;20196;-84
2023/07/13 04:23:52;;;;;;;18.60;11.68;;;;;;;-143.21;68.85;71518.97;5102101;28;20212;-84
2023/07/13 04:26:20;;;;;;;17.55;11.23;;;;;;;-143.21;69.39;71511.03;5099563;28;20295;-84
2023/07/13 04:28:48;;;;;;;18.20;11.52;;;;;;;-143.21;69.26;71505.09;5113603;27;20568;-84
2023/07/13 04:31:16;;;;;;;23.63;12.45;;;;;;;-143.21;69.16;71501.13;5113237;28;20651;-84
2023/07/13 04:33:43;;;;;;;23.27;11.90;;;;;;;-143.21;69.02;71497.16;5113228;28;20667;-84
2023/07/13 04:36:10;;;;;;;17.50;10.85;;;;;;;-143.21;68.85;71499.13;5113135;28;20283;-84
2023/07/13 04:38:37;;;;;;;16.20;11.10;;;;;;;-143.21;68.69;71497.16;5112910;28;20216;-86
2023/07/13 04:41:07;;;;;;;24.25;11.18;;;;;;;-143.21;68.70;71493.19;5113317;28;20192;-84
2023/07/13 04:43:34;;;;;;;17.27;10.45;;;;;;;-143.21;68.55;71499.13;5113362;28;20188;-84
2023/07/13 04:46:06;;;;;;;17.95;10.68;;;;;;;-143.21;68.47;71497.16;5113028;28;20286;-83
2023/07/13 04:48:35;;;;;;;17.20;10.38;;;;;;;-143.21;68.39;71495.19;5113182;28;20302;-84
2023/07/13 04:51:02;;;;;;;19.42;10.95;;;;;;;-143.21;67.84;71483.28;5112784;28;20250;-84
2023/07/13 04:53:30;;;;;;;16.92;11.50;;;;;;;-143.21;67.45;71491.22;5113084;28;20196;-84
2023/07/13 04:55:58;;;;;;;17.77;10.88;;;;;;;-143.21;67.92;71513.03;5112505;28;20218;-84
2023/07/13 04:58:25;;;;;;;17.30;10.27;;;;;;;-143.21;68.59;71518.97;5112572;28;20255;-79
2023/07/13 05:00:52;;;;;;;20.58;10.85;;;;;;;-143.21;68.83;71515.00;5112220;28;20207;-79
2023/07/13 05:03:19;;;;;;;23.30;10.95;;;;;;;-143.21;68.76;71511.03;5112228;28;20191;-79
2023/07/13 05:05:56;;;;;;;32.17;11.85;;;;;;;-143.21;68.17;71499.13;5112178;28;20204;-80
2023/07/13 05:08:22;;;;;;;24.98;11.45;;;;;;;-143.21;68.04;71491.22;5112239;28;20658;-79
2023/07/13 05:10:49;;;;;;;23.45;11.52;;;;;;;-143.21;67.97;71485.25;5112111;28;20200;-79
2023/07/13 05:13:16;;;;;;;26.02;11.60;;;;;;;-143.21;68.15;71479.31;5112311;28;20585;-79
2023/07/13 05:15:43;;;;;;;17.95;11.43;;;;;;;-143.21;67.74;71473.38;5112178;28;20203;-80
2023/07/13 05:18:10;;;;;;;20.48;11.57;;;;;;;-143.21;67.31;71479.31;5111905;28;20234;-80
2023/07/13 05:20:36;;;;;;;17.67;10.77;;;;;;;-143.21;66.83;71471.38;5111986;28;20188;-80
2023/07/13 05:23:05;;;;;;;16.35;10.15;;;;;;;-143.21;66.88;71463.44;5111598;28;20196;-80
2023/07/13 05:25:31;;;;;;;21.30;10.38;;;;;;;-143.21;67.06;71463.44;5111154;28;20199;-79
2023/07/13 05:27:58;;;;;;;25.70;10.98;;;;;;;-143.21;66.45;71461.47;5129062;27;20196;-80
2023/07/13 05:30:25;;;;;;;23.98;11.35;;;;;;;-143.21;65.93;71461.47;5111741;28;20290;-80
2023/07/13 05:32:52;;;;;;;18.33;10.13;;;;;;;-143.21;65.93;71469.41;5111933;28;20561;-80
2023/07/13 05:35:19;;;;;;;17.67;10.80;;;;;;;-143.21;66.01;71457.50;5111843;28;20760;-80
2023/07/13 05:37:45;;;;;;;17.80;10.43;;;;;;;-143.21;65.74;71453.53;5111486;28;20230;-80
2023/07/13 05:40:14;;;;;;;19.00;10.40;;;;;;;-143.21;65.30;71453.53;5111857;28;20253;-79
2023/07/13 05:42:41;;;;;;;21.08;10.63;;;;;;;-143.21;64.61;71447.59;5112156;28;20269;-81
2023/07/13 05:45:09;;;;;;;19.33;11.63;;;;;;;-143.21;64.83;71437.69;5111926;28;20203;-79
2023/07/13 05:47:35;;;;;;;22.63;12.15;;;;;;;-143.21;64.80;71431.72;5111369;28;20196;-79
2023/07/13 05:50:02;;;;;;;18.40;11.45;;;;;;;-143.21;64.74;71429.75;5111385;28;20196;-79
2023/07/13 05:52:29;;;;;;;27.30;12.77;;;;;;;-143.21;64.46;71415.88;5111409;28;20215;-79
2023/07/13 05:54:56;;;;;;;21.30;12.40;;;;;;;-143.21;64.64;71409.91;5109770;28;20211;-79
2023/07/13 05:57:24;;;;;;;18.67;12.50;;;;;;;-143.21;64.72;71402.00;5105982;28;20218;-80
2023/07/13 05:59:51;;;;;;;25.55;12.00;;;;;;;-143.21;64.56;71396.03;5110995;28;20554;-80
2023/07/13 06:02:18;;;;;;;23.38;12.02;;;;;;;-143.21;64.01;71384.16;5110946;28;20275;-79
2023/07/13 06:04:45;;;;;;;20.35;11.38;;;;;;;-143.21;64.32;71384.16;5118525;27;20187;-78
2023/07/13 06:07:11;;;;;;;19.73;12.48;;;;;;;-143.21;63.09;71370.28;5131459;27;20188;-79
2023/07/13 06:09:39;;;;;;;17.35;11.20;;;;;;;-143.21;62.12;71368.28;5121847;27;20197;-77
2023/07/13 06:12:06;;;;;;;18.95;11.30;;;;;;;-143.21;62.06;71366.31;5110672;28;20671;-78
2023/07/13 06:14:34;;;;;;;18.27;11.43;;;;;;;-143.21;61.65;71360.34;5111463;28;20195;-79
2023/07/13 06:17:01;;;;;;;20.17;11.23;;;;;;;-143.21;61.72;71352.44;5111483;28;20557;-79
2023/07/13 06:19:29;;;;;;;20.23;11.88;;;;;;;-143.21;61.39;71344.50;5111384;28;20188;-79
2023/07/13 06:21:56;;;;;;;17.35;11.45;;;;;;;-143.21;61.11;71344.50;5111234;28;20203;-80
2023/07/13 06:24:23;;;;;;;20.58;11.65;;;;;;;-143.21;61.05;71342.50;5110958;28;20666;-79
2023/07/13 06:26:49;;;;;;;19.17;11.23;;;;;;;-143.21;61.33;71340.53;5111168;28;20206;-80
2023/07/13 06:29:16;;;;;;;18.52;11.75;;;;;;;-143.21;60.45;71322.69;5110582;28;20220;-79
2023/07/13 06:31:44;;;;;;;17.75;11.52;;;;;;;-143.21;60.56;71308.81;5111056;28;20192;-81
2023/07/13 06:34:11;;;;;;;21.55;12.40;;;;;;;-143.21;60.67;71302.84;5110729;28;20204;-81
2023/07/13 06:36:38;;;;;;;17.33;10.90;;;;;;;-143.21;60.34;71296.91;5111417;28;20945;-81
2023/07/13 06:39:05;;;;;;;21.42;12.05;;;;;;;-143.21;60.15;71290.97;5110191;28;20231;-81
2023/07/13 06:41:33;;;;;;;19.40;11.75;;;;;;;-143.21;59.43;71279.06;5116452;27;20204;-81
2023/07/13 06:44:00;;;;;;;21.70;10.73;;;;;;;-143.21;59.93;71273.13;5110326;28;20196;-80
2023/07/13 06:46:29;;;;;;;17.38;9.05;;;;;;;-143.21;61.34;71261.22;5110512;28;20550;-80
2023/07/13 06:48:57;;;;;;;22.52;12.70;;;;;;;-143.21;60.36;71245.38;5110316;28;20263;-80
2023/07/13 06:51:25;;;;;;;22.88;12.10;;;;;;;-143.21;59.63;71231.50;5110878;28;20595;-79
2023/07/13 06:53:52;;;;;;;19.30;12.27;;;;;;;-143.21;58.29;71217.59;5109984;28;20203;-79
2023/07/13 06:56:19;;;;;;;21.98;12.02;;;;;;;-143.21;58.18;71205.72;5110223;28;20207;-87
2023/07/13 06:58:46;;;;;;;20.67;12.50;;;;;;;-143.21;58.13;71199.78;5110960;28;20294;-87
2023/07/13 07:01:13;;;;;;;21.92;11.75;;;;;;;-143.21;57.87;71195.81;5110900;28;20202;-87
2023/07/13 07:03:39;;;;;;;21.23;12.23;;;;;;;-143.21;57.68;71193.81;5111598;27;20184;-88
2023/07/13 07:06:14;;;;;;;17.15;11.38;;;;;;;-143.21;58.23;71177.97;5111590;28;20548;-86
2023/07/13 07:08:42;;;;;;;20.00;11.52;;;;;;;-143.21;58.03;71166.06;5111529;28;20219;-86
2023/07/13 07:11:10;;;;;;;18.00;10.75;;;;;;;-143.21;57.34;71140.28;5111486;28;20192;-86
2023/07/13 07:13:37;;;;;;;15.48;10.68;;;;;;;-143.21;56.39;71110.56;5110937;28;20658;-86
2023/07/13 07:16:04;;;;;;;18.35;11.93;;;;;;;-143.21;55.30;71090.72;5110937;28;20195;-87
2023/07/13 07:18:31;;;;;;;24.15;11.82;;;;;;;-143.21;54.07;71076.84;5111107;28;20693;-86
2023/07/13 07:20:58;;;;;;;17.83;12.23;;;;;;;-143.21;53.41;71057.03;5110361;28;20192;-79
2023/07/13 07:23:26;;;;;;;28.52;12.02;;;;;;;-143.21;52.88;71043.16;5109832;28;20199;-78
2023/07/13 07:25:53;;;;;;;21.73;11.90;;;;;;;-143.21;52.78;71037.22;5114569;27;20642;-79
2023/07/13 07:28:20;;;;;;;18.58;12.02;;;;;;;-143.21;52.92;71017.38;5117959;27;20211;-79
2023/07/13 07:30:48;;;;;;;20.45;10.93;;;;;;;-143.21;52.63;70999.53;5113718;27;20199;-79
2023/07/13 07:33:16;;;;;;;22.30;11.57;;;;;;;-143.21;52.21;70987.66;5113683;28;20219;-79
2023/07/13 07:35:43;;;;;;;17.92;11.13;;;;;;;-143.21;51.71;70975.75;5124002;27;20199;-78
2023/07/13 07:38:10;;;;;;;22.67;11.55;;;;;;;-143.21;51.33;70953.94;5133199;27;20223;-77
2023/07/13 07:40:40;;;;;;;18.08;10.80;;;;;;;-143.21;51.10;70949.97;5123587;27;20192;-78
2023/07/13 07:43:07;;;;;;;17.70;10.77;;;;;;;-143.21;51.06;70936.09;5113439;28;20657;-78
2023/07/13 07:45:33;;;;;;;17.17;11.38;;;;;;;-143.21;50.83;70918.25;5113479;28;20204;-78
2023/07/13 07:48:00;;;;;;;19.35;11.95;;;;;;;-143.21;50.64;70908.34;5112807;28;20235;-87
2023/07/13 07:50:28;;;;;;;19.90;11.35;;;;;;;-143.21;51.10;70892.50;5113603;28;20194;-87
2023/07/13 07:52:55;;;;;;;19.35;11.80;;;;;;;-143.21;50.67;70884.56;5114116;28;20694;-86
2023/07/13 07:55:23;;;;;;;24.38;12.20;;;;;;;-143.21;50.18;70870.69;5113410;28;20184;-86
2023/07/13 07:57:51;;;;;;;23.13;12.30;;;;;;;-143.21;49.58;70862.75;5133187;27;20231;-85
2023/07/13 08:00:19;;;;;;;16.33;11.00;;;;;;;-143.21;49.30;70852.84;5134102;27;20586;-86
2023/07/13 08:02:46;;;;;;;19.95;10.77;;;;;;;-143.21;49.52;70837.00;5134745;27;20196;-88
2023/07/13 08:05:13;;;;;;;16.33;11.82;;;;;;;-143.21;49.50;70825.09;5134294;27;20750;-87
2023/07/13 08:07:41;;;;;;;15.55;10.38;;;;;;;-143.21;49.55;70809.25;5128024;27;20343;-88
2023/07/13 08:10:09;;;;;;;17.77;11.15;;;;;;;-143.21;49.65;70801.31;5117663;27;20230;-87
2023/07/13 08:12:36;;;;;;;19.40;10.80;;;;;;;-143.21;49.19;70783.47;5118852;27;20709;-86
2023/07/13 08:15:06;;;;;;;21.23;10.93;;;;;;;-143.21;48.65;70773.56;5113750;27;20188;-86
2023/07/13 08:17:33;;;;;;;16.65;9.40;;;;;;;-143.21;47.29;70759.69;5113179;28;20697;-88
2023/07/13 08:20:00;;;;;;;13.93;9.60;;;;;;;-143.21;47.46;70749.78;5113326;27;20202;-88
2023/07/13 08:22:27;;;;;;;15.60;9.52;;;;;;;-143.21;47.45;70741.84;5113059;28;20204;-86
2023/07/13 08:24:56;;;;;;;15.45;9.38;;;;;;;-143.21;47.13;70725.97;5112624;28;20747;-88
2023/07/13 08:27:23;;;;;;;18.27;10.88;;;;;;;-143.21;46.69;70722.03;5113104;28;20195;-88
2023/07/13 08:29:51;;;;;;;14.35;9.95;;;;;;;-143.21;46.61;70714.09;5111434;27;20199;-88
2023/07/13 08:32:20;;;;;;;16.00;10.02;;;;;;;-143.21;46.87;70700.22;5120000;27;20549;-87
2023/07/13 08:34:47;;;;;;;21.92;10.02;;;;;;;-143.21;46.62;70680.38;5113799;27;20242;-86
2023/07/13 08:37:14;;;;;;;14.95;10.02;;;;;;;-143.21;45.85;70664.53;5110845;28;20552;-87
2023/07/13 08:39:41;;;;;;;15.80;9.85;;;;;;;-143.21;46.05;70652.66;5111765;28;20216;-88
2023/07/13 08:42:15;;;;;;;13.52;9.35;;;;;;;-143.21;45.72;70640.75;5112669;28;20604;-87
2023/07/13 08:44:54;;;;;;;16.83;9.48;;;;;;;-143.21;45.33;70644.72;5113052;28;20576;-88
2023/07/13 08:47:24;;;;;;;15.32;9.70;;;;;;;-143.21;45.57;70628.84;5112783;28;20260;-88
2023/07/13 08:49:52;;;;;;;13.00;10.13;;;;;;;-143.21;45.04;70628.84;5112668;28;20242;-87
2023/07/13 08:52:33;;;;;;;14.52;9.70;;;;;;;-143.21;44.76;70616.97;5114425;27;20245;-86
2023/07/13 08:55:06;;;;;;;13.32;9.27;;;;;;;-143.21;44.51;70607.06;5113476;28;20242;-88
2023/07/13 08:57:35;;;;;;;19.77;9.98;;;;;;;-143.21;44.58;70599.13;5112721;28;20200;-87
2023/07/13 09:00:04;;;;;;;16.92;10.68;;;;;;;-143.21;45.09;70585.25;5112422;28;20232;-87
2023/07/13 09:02:42;;;;;;;18.58;10.02;;;;;;;-143.21;44.98;70583.25;5112058;28;20284;-89
2023/07/13 09:05:16;;;;;;;15.90;9.90;;;;;;;-143.21;43.96;70581.28;5112870;27;20214;-88
2023/07/13 09:07:58;;;;;;;19.45;10.35;;;;;;;-143.21;43.90;70575.34;5123659;27;20273;-87
2023/07/13 09:10:29;;;;;;;18.95;10.60;;;;;;;-143.21;43.96;70561.47;5112043;28;20298;-85
2023/07/13 09:13:08;;;;;;;23.45;10.98;;;;;;;-143.21;43.67;70551.56;5114190;27;20562;-85
2023/07/13 09:15:38;;;;;;;22.15;10.18;;;;;;;-143.21;44.02;70541.63;5111934;28;20203;-86
2023/07/13 09:18:12;;;;;;;19.55;10.02;;;;;;;-143.21;43.88;70535.69;5113600;27;20274;-86
2023/07/13 09:20:45;;;;;;;16.70;10.50;;;;;;;-143.21;43.25;70523.81;5132518;27;20174;-86
2023/07/13 09:23:18;;;;;;;16.20;10.32;;;;;;;-143.21;43.48;70523.81;5133232;27;20195;-85
2023/07/13 09:25:50;;;;;;;13.13;9.75;;;;;;;-143.21;43.75;70515.88;5124372;27;20199;-86
2023/07/13 09:28:22;;;;;;;19.15;9.95;;;;;;;-143.21;43.35;70498.03;5111832;28;20873;-80
2023/07/13 09:30:55;;;;;;;17.65;12.68;;;;;;;-143.21;42.95;70486.16;5110352;28;20719;-79
2023/07/13 09:33:23;;;;;;;18.77;9.95;;;;;;;-143.21;43.41;70476.22;5110736;28;20188;-80
2023/07/13 09:35:50;;;;;;;27.27;9.73;;;;;;;-143.21;42.45;70456.41;5110917;28;20261;-80
2023/07/13 09:38:19;;;;;;;14.25;9.25;;;;;;;-143.21;42.61;70440.56;5111211;28;20204;-87
2023/07/13 09:41:05;;;;;;;15.77;9.13;;;;;;;-143.21;42.84;70426.69;5111962;28;20200;-88
2023/07/13 09:43:32;;;;;;;18.20;7.40;;;;;;;-143.21;38.37;70400.91;5112140;28;20222;-88
2023/07/13 09:45:59;;;;;;;9.80;5.75;;;;;;;-143.21;35.03;70402.91;5112696;28;20203;-86
2023/07/13 09:48:35;;;;;;;15.57;6.53;;;;;;;-143.21;36.34;70373.16;5110516;28;20222;-89
2023/07/13 09:51:15;;;;;;;15.32;6.13;;;;;;;-143.21;33.29;70363.25;5111300;28;20200;-89
2023/07/13 09:53:44;;;;;;;12.25;5.47;;;;;;;-143.21;33.32;70343.44;5111538;28;20196;-87
2023/07/13 09:56:21;;;;;;;14.25;5.65;;;;;;;-143.21;32.54;70333.53;5110934;28;20677;-86
2023/07/13 09:58:48;;;;;;;11.52;5.25;;;;;;;-143.21;32.43;70323.63;5112196;27;20280;-89
2023/07/13 10:01:15;;;;;;;10.63;5.40;;;;;;;-143.21;32.20;70313.72;5117871;27;20206;-79
2023/07/13 10:03:53;;;;;;;10.50;6.00;;;;;;;-143.21;32.43;70301.81;5111091;28;20227;-79
2023/07/13 10:06:22;;;;;;;11.77;5.38;;;;;;;-143.21;31.93;70289.91;5124804;27;20191;-79
2023/07/13 10:08:52;;;;;;;10.98;5.30;;;;;;;-143.21;31.84;70276.03;5131580;27;20192;-79
2023/07/13 10:11:22;;;;;;;9.07;5.55;;;;;;;-143.21;32.04;70260.19;5131454;28;20226;-79
2023/07/13 10:13:55;;;;;;;13.48;5.55;;;;;;;-143.21;32.07;70250.28;5131368;28;20258;-78
2023/07/13 10:16:23;;;;;;;12.90;5.72;;;;;;;-143.21;32.26;70256.22;5131198;28;20183;-79
2023/07/13 10:18:55;;;;;;;10.38;6.03;;;;;;;-143.21;31.24;70250.28;5112627;28;20228;-79
2023/07/13 10:21:24;;;;;;;14.18;5.65;;;;;;;-143.21;31.35;70246.31;5110515;27;20286;-81
2023/07/13 10:23:56;;;;;;;14.45;5.80;;;;;;;-143.21;32.33;70228.47;5111079;28;20228;-80
2023/07/13 10:26:26;;;;;;;13.48;5.38;;;;;;;-143.21;31.65;70198.75;5110982;28;20192;-80
2023/07/13 10:28:57;;;;;;;9.63;5.68;;;;;;;-143.21;32.09;70186.84;5111113;28;20184;-80
2023/07/13 10:31:24;;;;;;;10.27;5.60;;;;;;;-143.21;31.40;70169.03;5123047;27;20194;-80
2023/07/13 10:33:53;;;;;;;13.73;5.68;;;;;;;-143.21;30.80;70151.19;5110538;28;20195;-79
2023/07/13 10:36:30;;;;;;;16.27;5.32;;;;;;;-143.21;29.99;70155.16;5110599;28;20192;-79
2023/07/13 10:39:00;;;;;;;15.02;5.70;;;;;;;-143.21;30.26;70143.25;5110811;28;20791;-79
2023/07/13 10:41:28;;;;;;;11.70;5.05;;;;;;;-143.21;30.05;70145.25;5111137;28;20216;-79
2023/07/13 10:43:57;;;;;;;12.48;5.40;;;;;;;-143.21;30.32;70131.38;5110437;28;20694;-79
2023/07/13 10:46:28;;;;;;;9.27;5.72;;;;;;;-143.21;30.15;70103.63;5110910;28;20261;-79
2023/07/13 10:48:59;;;;;;;12.85;5.10;;;;;;;-143.21;29.02;70097.66;5110020;28;20236;-80
2023/07/13 10:51:28;;;;;;;14.05;5.38;;;;;;;-143.21;29.47;70081.81;5110763;28;20257;-79
2023/07/13 10:54:22;;;;;;;10.98;5.28;;;;;;;-143.21;29.62;70058.03;5110257;28;20204;-79
2023/07/13 10:56:54;;;;;;;7.30;5.18;;;;;;;-143.21;30.20;70050.09;5110199;28;20227;-78
2023/07/13 10:59:27;;;;;;;11.15;5.72;;;;;;;-143.21;29.88;70018.41;5111967;28;20285;-78
2023/07/13 11:01:57;;;;;;;15.35;5.43;;;;;;;-143.21;29.16;70000.56;5114627;27;20228;-79
2023/07/13 11:04:27;;;;;;;11.15;5.40;;;;;;;-143.21;29.15;69992.63;5114379;28;20192;-89
2023/07/13 11:06:57;;;;;;;8.73;5.20;;;;;;;-143.21;28.64;69984.72;5114986;28;20196;-88
2023/07/13 11:09:39;;;;;;;11.85;5.20;;;;;;;-143.21;28.44;69962.91;5115835;28;20198;-88
2023/07/13 11:12:27;;;;;;;12.55;5.80;;;;;;;-143.21;28.15;69937.16;5115252;28;20292;-86